sensor_id;sensor_type;location;lat;lon;timestamp;P1;durP1;ratioP1;P2;durP2;ratioP2
6850;SDS011;3464;42.728;23.296;2023-05-16T00:00:33;26.53;;;18.03;;
6850;SDS011;3464;42.728;23.296;2023-05-16T00:03:00;29.20;;;18.97;;
6850;SDS011;3464;42.728;23.296;2023-05-16T00:05:27;28.93;;;20.00;;
6850;SDS011;3464;42.728;23.296;2023-05-16T00:07:54;29.90;;;19.70;;
6850;SDS011;3464;42.728;23.296;2023-05-16T00:10:20;30.43;;;19.10;;
6850;SDS011;3464;42.728;23.296;2023-05-16T00:12:48;33.20;;;19.27;;
6850;SDS011;3464;42.728;23.296;2023-05-16T00:15:16;33.17;;;18.97;;
6850;SDS011;3464;42.728;23.296;2023-05-16T00:17:42;27.37;;;19.27;;
6850;SDS011;3464;42.728;23.296;2023-05-16T00:20:10;28.33;;;19.40;;
6850;SDS011;3464;42.728;23.296;2023-05-16T00:22:37;27.70;;;17.83;;
6850;SDS011;3464;42.728;23.296;2023-05-16T00:25:05;29.83;;;18.33;;
6850;SDS011;3464;42.728;23.296;2023-05-16T00:27:33;30.83;;;18.90;;
6850;SDS011;3464;42.728;23.296;2023-05-16T00:29:59;33.27;;;19.57;;
6850;SDS011;3464;42.728;23.296;2023-05-16T00:32:26;27.90;;;20.17;;
6850;SDS011;3464;42.728;23.296;2023-05-16T00:34:52;32.37;;;19.73;;
6850;SDS011;3464;42.728;23.296;2023-05-16T00:37:19;26.50;;;18.73;;
6850;SDS011;3464;42.728;23.296;2023-05-16T00:39:45;30.33;;;19.03;;
6850;SDS011;3464;42.728;23.296;2023-05-16T00:42:12;31.77;;;19.77;;
6850;SDS011;3464;42.728;23.296;2023-05-16T00:44:39;32.97;;;19.73;;
6850;SDS011;3464;42.728;23.296;2023-05-16T00:47:05;35.30;;;19.17;;
6850;SDS011;3464;42.728;23.296;2023-05-16T00:49:32;27.23;;;19.20;;
6850;SDS011;3464;42.728;23.296;2023-05-16T00:51:58;32.97;;;18.07;;
6850;SDS011;3464;42.728;23.296;2023-05-16T00:54:25;29.13;;;18.70;;
6850;SDS011;3464;42.728;23.296;2023-05-16T00:56:52;27.80;;;18.63;;
6850;SDS011;3464;42.728;23.296;2023-05-16T00:59:18;28.40;;;19.67;;
6850;SDS011;3464;42.728;23.296;2023-05-16T01:01:45;32.63;;;19.83;;
6850;SDS011;3464;42.728;23.296;2023-05-16T01:04:11;29.63;;;19.60;;
6850;SDS011;3464;42.728;23.296;2023-05-16T01:06:38;31.00;;;19.23;;
6850;SDS011;3464;42.728;23.296;2023-05-16T01:09:05;29.40;;;19.30;;
6850;SDS011;3464;42.728;23.296;2023-05-16T01:12:08;29.80;;;19.53;;
6850;SDS011;3464;42.728;23.296;2023-05-16T01:16:58;30.43;;;19.30;;
6850;SDS011;3464;42.728;23.296;2023-05-16T01:20:05;33.90;;;19.30;;
6850;SDS011;3464;42.728;23.296;2023-05-16T01:22:32;32.33;;;19.50;;
6850;SDS011;3464;42.728;23.296;2023-05-16T01:25:04;37.17;;;18.90;;
6850;SDS011;3464;42.728;23.296;2023-05-16T01:27:47;29.77;;;19.97;;
6850;SDS011;3464;42.728;23.296;2023-05-16T01:30:15;30.10;;;19.73;;
6850;SDS011;3464;42.728;23.296;2023-05-16T01:32:41;28.83;;;18.23;;
6850;SDS011;3464;42.728;23.296;2023-05-16T01:35:08;27.37;;;18.50;;
6850;SDS011;3464;42.728;23.296;2023-05-16T01:37:35;28.17;;;18.33;;
6850;SDS011;3464;42.728;23.296;2023-05-16T01:40:02;27.63;;;17.70;;
6850;SDS011;3464;42.728;23.296;2023-05-16T01:42:30;29.53;;;17.87;;
6850;SDS011;3464;42.728;23.296;2023-05-16T01:45:03;32.57;;;17.40;;
6850;SDS011;3464;42.728;23.296;2023-05-16T01:47:27;26.17;;;18.67;;
6850;SDS011;3464;42.728;23.296;2023-05-16T01:49:57;29.63;;;19.20;;
6850;SDS011;3464;42.728;23.296;2023-05-16T01:52:26;26.27;;;18.50;;
6850;SDS011;3464;42.728;23.296;2023-05-16T01:54:53;31.17;;;18.40;;
6850;SDS011;3464;42.728;23.296;2023-05-16T01:57:20;29.30;;;19.50;;
6850;SDS011;3464;42.728;23.296;2023-05-16T01:59:47;30.33;;;18.63;;
6850;SDS011;3464;42.728;23.296;2023-05-16T02:02:13;26.20;;;18.23;;
6850;SDS011;3464;42.728;23.296;2023-05-16T02:04:39;29.03;;;16.70;;
6850;SDS011;3464;42.728;23.296;2023-05-16T02:07:06;25.27;;;17.67;;
6850;SDS011;3464;42.728;23.296;2023-05-16T02:09:33;25.03;;;17.60;;
6850;SDS011;3464;42.728;23.296;2023-05-16T02:11:59;31.60;;;18.40;;
6850;SDS011;3464;42.728;23.296;2023-05-16T02:14:26;29.17;;;17.43;;
6850;SDS011;3464;42.728;23.296;2023-05-16T02:16:52;31.90;;;17.70;;
6850;SDS011;3464;42.728;23.296;2023-05-16T02:19:19;26.40;;;16.50;;
6850;SDS011;3464;42.728;23.296;2023-05-16T02:21:46;28.27;;;17.40;;
6850;SDS011;3464;42.728;23.296;2023-05-16T02:24:12;34.00;;;18.47;;
6850;SDS011;3464;42.728;23.296;2023-05-16T02:26:39;26.27;;;17.73;;
6850;SDS011;3464;42.728;23.296;2023-05-16T02:29:06;30.80;;;17.33;;
6850;SDS011;3464;42.728;23.296;2023-05-16T02:31:33;26.73;;;17.17;;
6850;SDS011;3464;42.728;23.296;2023-05-16T02:33:59;27.10;;;18.27;;
6850;SDS011;3464;42.728;23.296;2023-05-16T02:36:26;27.10;;;17.27;;
6850;SDS011;3464;42.728;23.296;2023-05-16T02:38:53;29.90;;;17.33;;
6850;SDS011;3464;42.728;23.296;2023-05-16T02:41:20;28.27;;;18.40;;
6850;SDS011;3464;42.728;23.296;2023-05-16T02:43:47;29.20;;;18.47;;
6850;SDS011;3464;42.728;23.296;2023-05-16T02:48:46;30.80;;;16.67;;
6850;SDS011;3464;42.728;23.296;2023-05-16T02:51:14;28.80;;;17.70;;
6850;SDS011;3464;42.728;23.296;2023-05-16T02:53:43;28.37;;;17.33;;
6850;SDS011;3464;42.728;23.296;2023-05-16T02:56:11;29.33;;;15.70;;
6850;SDS011;3464;42.728;23.296;2023-05-16T02:58:40;29.83;;;16.97;;
6850;SDS011;3464;42.728;23.296;2023-05-16T03:01:07;28.17;;;16.87;;
6850;SDS011;3464;42.728;23.296;2023-05-16T03:03:34;30.23;;;16.70;;
6850;SDS011;3464;42.728;23.296;2023-05-16T03:06:00;23.37;;;16.13;;
6850;SDS011;3464;42.728;23.296;2023-05-16T03:08:27;25.50;;;16.70;;
6850;SDS011;3464;42.728;23.296;2023-05-16T03:10:53;25.03;;;15.33;;
6850;SDS011;3464;42.728;23.296;2023-05-16T03:13:20;25.40;;;17.10;;
6850;SDS011;3464;42.728;23.296;2023-05-16T03:15:47;24.87;;;15.87;;
6850;SDS011;3464;42.728;23.296;2023-05-16T03:18:13;26.93;;;15.80;;
6850;SDS011;3464;42.728;23.296;2023-05-16T03:20:40;23.80;;;16.13;;
6850;SDS011;3464;42.728;23.296;2023-05-16T03:23:06;23.90;;;15.70;;
6850;SDS011;3464;42.728;23.296;2023-05-16T03:25:33;27.67;;;16.90;;
6850;SDS011;3464;42.728;23.296;2023-05-16T03:28:00;34.13;;;18.60;;
6850;SDS011;3464;42.728;23.296;2023-05-16T03:30:26;24.97;;;15.43;;
6850;SDS011;3464;42.728;23.296;2023-05-16T03:32:53;26.97;;;16.30;;
6850;SDS011;3464;42.728;23.296;2023-05-16T03:35:20;24.80;;;15.03;;
6850;SDS011;3464;42.728;23.296;2023-05-16T03:37:47;28.33;;;16.50;;
6850;SDS011;3464;42.728;23.296;2023-05-16T03:40:13;29.20;;;15.93;;
6850;SDS011;3464;42.728;23.296;2023-05-16T03:42:41;27.00;;;15.10;;
6850;SDS011;3464;42.728;23.296;2023-05-16T03:45:08;31.77;;;15.37;;
6850;SDS011;3464;42.728;23.296;2023-05-16T03:47:35;27.13;;;16.37;;
6850;SDS011;3464;42.728;23.296;2023-05-16T03:50:02;30.43;;;16.67;;
6850;SDS011;3464;42.728;23.296;2023-05-16T03:52:29;24.20;;;15.93;;
6850;SDS011;3464;42.728;23.296;2023-05-16T03:54:57;29.00;;;16.03;;
6850;SDS011;3464;42.728;23.296;2023-05-16T03:57:23;26.23;;;16.60;;
6850;SDS011;3464;42.728;23.296;2023-05-16T03:59:50;27.80;;;16.70;;
6850;SDS011;3464;42.728;23.296;2023-05-16T04:02:16;29.37;;;16.23;;
6850;SDS011;3464;42.728;23.296;2023-05-16T04:04:46;28.03;;;16.37;;
6850;SDS011;3464;42.728;23.296;2023-05-16T04:07:36;25.20;;;15.50;;
6850;SDS011;3464;42.728;23.296;2023-05-16T04:10:17;32.00;;;16.53;;
6850;SDS011;3464;42.728;23.296;2023-05-16T04:12:45;26.37;;;16.10;;
6850;SDS011;3464;42.728;23.296;2023-05-16T04:15:14;32.83;;;17.53;;
6850;SDS011;3464;42.728;23.296;2023-05-16T04:17:43;29.47;;;17.13;;
6850;SDS011;3464;42.728;23.296;2023-05-16T04:20:10;30.47;;;17.07;;
6850;SDS011;3464;42.728;23.296;2023-05-16T04:22:37;30.83;;;19.83;;
6850;SDS011;3464;42.728;23.296;2023-05-16T04:25:06;29.20;;;16.90;;
6850;SDS011;3464;42.728;23.296;2023-05-16T04:27:34;26.90;;;17.20;;
6850;SDS011;3464;42.728;23.296;2023-05-16T04:30:02;40.80;;;17.77;;
6850;SDS011;3464;42.728;23.296;2023-05-16T04:32:29;32.27;;;18.10;;
6850;SDS011;3464;42.728;23.296;2023-05-16T04:34:55;27.23;;;17.70;;
6850;SDS011;3464;42.728;23.296;2023-05-16T04:37:23;29.57;;;17.90;;
6850;SDS011;3464;42.728;23.296;2023-05-16T04:39:50;31.43;;;18.33;;
6850;SDS011;3464;42.728;23.296;2023-05-16T04:42:18;30.10;;;16.70;;
6850;SDS011;3464;42.728;23.296;2023-05-16T04:44:45;39.10;;;22.90;;
6850;SDS011;3464;42.728;23.296;2023-05-16T04:47:13;29.23;;;18.27;;
6850;SDS011;3464;42.728;23.296;2023-05-16T04:49:40;32.80;;;18.77;;
6850;SDS011;3464;42.728;23.296;2023-05-16T04:52:10;36.90;;;19.33;;
6850;SDS011;3464;42.728;23.296;2023-05-16T04:54:37;43.83;;;28.93;;
6850;SDS011;3464;42.728;23.296;2023-05-16T04:57:06;29.27;;;18.70;;
6850;SDS011;3464;42.728;23.296;2023-05-16T04:59:38;32.33;;;18.63;;
6850;SDS011;3464;42.728;23.296;2023-05-16T05:02:04;36.90;;;20.17;;
6850;SDS011;3464;42.728;23.296;2023-05-16T05:04:32;30.23;;;19.03;;
6850;SDS011;3464;42.728;23.296;2023-05-16T05:06:58;38.90;;;20.03;;
6850;SDS011;3464;42.728;23.296;2023-05-16T05:09:25;34.93;;;20.67;;
6850;SDS011;3464;42.728;23.296;2023-05-16T05:11:53;37.83;;;20.03;;
6850;SDS011;3464;42.728;23.296;2023-05-16T05:14:22;33.83;;;20.33;;
6850;SDS011;3464;42.728;23.296;2023-05-16T05:16:49;32.73;;;18.97;;
6850;SDS011;3464;42.728;23.296;2023-05-16T05:19:19;37.60;;;19.53;;
6850;SDS011;3464;42.728;23.296;2023-05-16T05:21:46;40.63;;;19.87;;
6850;SDS011;3464;42.728;23.296;2023-05-16T05:24:13;37.50;;;20.47;;
6850;SDS011;3464;42.728;23.296;2023-05-16T05:26:40;36.47;;;20.77;;
6850;SDS011;3464;42.728;23.296;2023-05-16T05:29:06;31.83;;;20.27;;
6850;SDS011;3464;42.728;23.296;2023-05-16T05:31:37;34.00;;;21.70;;
6850;SDS011;3464;42.728;23.296;2023-05-16T05:34:03;53.13;;;32.33;;
6850;SDS011;3464;42.728;23.296;2023-05-16T05:36:30;35.83;;;20.93;;
6850;SDS011;3464;42.728;23.296;2023-05-16T05:38:58;32.17;;;20.50;;
6850;SDS011;3464;42.728;23.296;2023-05-16T05:41:26;34.03;;;19.53;;
6850;SDS011;3464;42.728;23.296;2023-05-16T05:43:58;34.37;;;19.67;;
6850;SDS011;3464;42.728;23.296;2023-05-16T05:46:26;34.43;;;20.20;;
6850;SDS011;3464;42.728;23.296;2023-05-16T05:48:53;32.50;;;19.67;;
6850;SDS011;3464;42.728;23.296;2023-05-16T05:51:21;30.10;;;18.93;;
6850;SDS011;3464;42.728;23.296;2023-05-16T05:53:47;30.40;;;18.80;;
6850;SDS011;3464;42.728;23.296;2023-05-16T05:56:14;39.30;;;19.73;;
6850;SDS011;3464;42.728;23.296;2023-05-16T05:58:42;29.43;;;16.30;;
6850;SDS011;3464;42.728;23.296;2023-05-16T06:01:10;36.57;;;17.90;;
6850;SDS011;3464;42.728;23.296;2023-05-16T06:03:37;31.20;;;18.07;;
6850;SDS011;3464;42.728;23.296;2023-05-16T06:06:06;34.00;;;17.20;;
6850;SDS011;3464;42.728;23.296;2023-05-16T06:08:33;27.07;;;16.97;;
6850;SDS011;3464;42.728;23.296;2023-05-16T06:11:00;30.03;;;15.77;;
6850;SDS011;3464;42.728;23.296;2023-05-16T06:13:27;30.57;;;15.60;;
6850;SDS011;3464;42.728;23.296;2023-05-16T06:15:55;25.40;;;14.63;;
6850;SDS011;3464;42.728;23.296;2023-05-16T06:18:25;26.93;;;15.03;;
6850;SDS011;3464;42.728;23.296;2023-05-16T06:20:53;25.80;;;15.33;;
6850;SDS011;3464;42.728;23.296;2023-05-16T06:23:21;29.40;;;13.80;;
6850;SDS011;3464;42.728;23.296;2023-05-16T06:25:49;24.63;;;13.50;;
6850;SDS011;3464;42.728;23.296;2023-05-16T06:28:15;24.33;;;12.87;;
6850;SDS011;3464;42.728;23.296;2023-05-16T06:30:42;23.63;;;13.50;;
6850;SDS011;3464;42.728;23.296;2023-05-16T06:33:10;28.70;;;13.77;;
6850;SDS011;3464;42.728;23.296;2023-05-16T06:35:38;25.20;;;13.87;;
6850;SDS011;3464;42.728;23.296;2023-05-16T06:38:05;27.77;;;14.47;;
6850;SDS011;3464;42.728;23.296;2023-05-16T06:40:32;33.67;;;13.80;;
6850;SDS011;3464;42.728;23.296;2023-05-16T06:43:00;33.23;;;14.57;;
6850;SDS011;3464;42.728;23.296;2023-05-16T06:45:26;28.60;;;13.67;;
6850;SDS011;3464;42.728;23.296;2023-05-16T06:47:54;25.40;;;14.20;;
6850;SDS011;3464;42.728;23.296;2023-05-16T06:50:22;34.30;;;13.30;;
6850;SDS011;3464;42.728;23.296;2023-05-16T06:52:51;28.13;;;13.70;;
6850;SDS011;3464;42.728;23.296;2023-05-16T06:55:20;32.23;;;13.80;;
6850;SDS011;3464;42.728;23.296;2023-05-16T06:57:47;30.77;;;14.50;;
6850;SDS011;3464;42.728;23.296;2023-05-16T07:00:16;27.73;;;13.60;;
6850;SDS011;3464;42.728;23.296;2023-05-16T07:02:47;26.73;;;13.50;;
6850;SDS011;3464;42.728;23.296;2023-05-16T07:05:15;25.67;;;14.20;;
6850;SDS011;3464;42.728;23.296;2023-05-16T07:07:42;26.87;;;14.53;;
6850;SDS011;3464;42.728;23.296;2023-05-16T07:10:11;27.63;;;14.57;;
6850;SDS011;3464;42.728;23.296;2023-05-16T07:12:40;32.80;;;14.63;;
6850;SDS011;3464;42.728;23.296;2023-05-16T07:15:06;34.10;;;15.60;;
6850;SDS011;3464;42.728;23.296;2023-05-16T07:17:35;29.33;;;15.13;;
6850;SDS011;3464;42.728;23.296;2023-05-16T07:20:02;25.50;;;14.50;;
6850;SDS011;3464;42.728;23.296;2023-05-16T07:22:30;28.33;;;15.03;;
6850;SDS011;3464;42.728;23.296;2023-05-16T07:24:57;26.90;;;13.40;;
6850;SDS011;3464;42.728;23.296;2023-05-16T07:27:25;25.70;;;13.70;;
6850;SDS011;3464;42.728;23.296;2023-05-16T07:29:53;27.77;;;13.13;;
6850;SDS011;3464;42.728;23.296;2023-05-16T07:32:20;30.57;;;14.70;;
6850;SDS011;3464;42.728;23.296;2023-05-16T07:34:47;27.80;;;14.47;;
6850;SDS011;3464;42.728;23.296;2023-05-16T07:37:13;26.83;;;13.87;;
6850;SDS011;3464;42.728;23.296;2023-05-16T07:39:40;31.70;;;14.93;;
6850;SDS011;3464;42.728;23.296;2023-05-16T07:42:07;31.40;;;14.00;;
6850;SDS011;3464;42.728;23.296;2023-05-16T07:44:39;30.30;;;14.33;;
6850;SDS011;3464;42.728;23.296;2023-05-16T07:47:11;28.50;;;13.37;;
6850;SDS011;3464;42.728;23.296;2023-05-16T07:49:42;26.67;;;13.27;;
6850;SDS011;3464;42.728;23.296;2023-05-16T07:52:11;35.03;;;12.57;;
6850;SDS011;3464;42.728;23.296;2023-05-16T07:54:39;22.97;;;11.90;;
6850;SDS011;3464;42.728;23.296;2023-05-16T07:57:09;19.73;;;10.60;;
6850;SDS011;3464;42.728;23.296;2023-05-16T07:59:47;26.70;;;11.90;;
6850;SDS011;3464;42.728;23.296;2023-05-16T08:02:17;24.33;;;10.43;;
6850;SDS011;3464;42.728;23.296;2023-05-16T08:04:48;20.90;;;11.03;;
6850;SDS011;3464;42.728;23.296;2023-05-16T08:07:22;23.43;;;11.17;;
6850;SDS011;3464;42.728;23.296;2023-05-16T08:10:07;24.23;;;11.40;;
6850;SDS011;3464;42.728;23.296;2023-05-16T08:12:37;23.13;;;11.10;;
6850;SDS011;3464;42.728;23.296;2023-05-16T08:15:08;21.50;;;11.20;;
6850;SDS011;3464;42.728;23.296;2023-05-16T08:17:36;29.03;;;10.57;;
6850;SDS011;3464;42.728;23.296;2023-05-16T08:20:07;27.60;;;11.13;;
6850;SDS011;3464;42.728;23.296;2023-05-16T08:22:35;23.10;;;9.87;;
6850;SDS011;3464;42.728;23.296;2023-05-16T08:25:04;24.07;;;11.23;;
6850;SDS011;3464;42.728;23.296;2023-05-16T08:27:33;25.67;;;11.23;;
6850;SDS011;3464;42.728;23.296;2023-05-16T08:30:02;24.13;;;11.07;;
6850;SDS011;3464;42.728;23.296;2023-05-16T08:32:30;30.83;;;10.77;;
6850;SDS011;3464;42.728;23.296;2023-05-16T08:34:57;24.50;;;11.20;;
6850;SDS011;3464;42.728;23.296;2023-05-16T08:37:24;25.23;;;11.30;;
6850;SDS011;3464;42.728;23.296;2023-05-16T08:39:52;25.70;;;11.67;;
6850;SDS011;3464;42.728;23.296;2023-05-16T08:42:22;23.23;;;11.70;;
6850;SDS011;3464;42.728;23.296;2023-05-16T08:44:52;28.23;;;11.93;;
6850;SDS011;3464;42.728;23.296;2023-05-16T08:47:20;20.00;;;10.67;;
6850;SDS011;3464;42.728;23.296;2023-05-16T08:49:48;26.17;;;11.80;;
6850;SDS011;3464;42.728;23.296;2023-05-16T08:52:16;26.33;;;11.63;;
6850;SDS011;3464;42.728;23.296;2023-05-16T08:54:41;23.53;;;10.40;;
6850;SDS011;3464;42.728;23.296;2023-05-16T08:57:08;26.50;;;11.33;;
6850;SDS011;3464;42.728;23.296;2023-05-16T08:59:34;25.33;;;10.80;;
6850;SDS011;3464;42.728;23.296;2023-05-16T09:02:01;23.80;;;10.50;;
6850;SDS011;3464;42.728;23.296;2023-05-16T09:04:30;21.27;;;9.80;;
6850;SDS011;3464;42.728;23.296;2023-05-16T09:06:56;21.10;;;9.90;;
6850;SDS011;3464;42.728;23.296;2023-05-16T09:09:23;26.40;;;9.63;;
6850;SDS011;3464;42.728;23.296;2023-05-16T09:11:49;28.37;;;10.43;;
6850;SDS011;3464;42.728;23.296;2023-05-16T09:14:16;25.33;;;9.77;;
6850;SDS011;3464;42.728;23.296;2023-05-16T09:16:43;20.07;;;9.80;;
6850;SDS011;3464;42.728;23.296;2023-05-16T09:19:11;25.33;;;9.83;;
6850;SDS011;3464;42.728;23.296;2023-05-16T09:21:36;22.60;;;8.90;;
6850;SDS011;3464;42.728;23.296;2023-05-16T09:24:03;25.17;;;9.07;;
6850;SDS011;3464;42.728;23.296;2023-05-16T09:26:33;17.57;;;9.40;;
6850;SDS011;3464;42.728;23.296;2023-05-16T09:28:59;23.30;;;9.67;;
6850;SDS011;3464;42.728;23.296;2023-05-16T09:31:26;23.27;;;10.87;;
6850;SDS011;3464;42.728;23.296;2023-05-16T09:33:54;23.93;;;9.87;;
6850;SDS011;3464;42.728;23.296;2023-05-16T09:36:22;21.33;;;8.83;;
6850;SDS011;3464;42.728;23.296;2023-05-16T09:38:49;23.07;;;9.03;;
6850;SDS011;3464;42.728;23.296;2023-05-16T09:41:15;21.37;;;9.00;;
6850;SDS011;3464;42.728;23.296;2023-05-16T09:43:43;24.60;;;10.00;;
6850;SDS011;3464;42.728;23.296;2023-05-16T09:46:13;23.40;;;9.47;;
6850;SDS011;3464;42.728;23.296;2023-05-16T09:48:44;23.40;;;8.70;;
6850;SDS011;3464;42.728;23.296;2023-05-16T09:51:12;26.47;;;9.50;;
6850;SDS011;3464;42.728;23.296;2023-05-16T09:53:40;26.40;;;10.30;;
6850;SDS011;3464;42.728;23.296;2023-05-16T09:56:13;26.23;;;10.53;;
6850;SDS011;3464;42.728;23.296;2023-05-16T09:58:40;22.63;;;9.83;;
6850;SDS011;3464;42.728;23.296;2023-05-16T10:01:06;25.07;;;9.93;;
6850;SDS011;3464;42.728;23.296;2023-05-16T10:03:33;22.47;;;9.30;;
6850;SDS011;3464;42.728;23.296;2023-05-16T10:06:02;23.53;;;9.90;;
6850;SDS011;3464;42.728;23.296;2023-05-16T10:08:29;23.53;;;11.00;;
6850;SDS011;3464;42.728;23.296;2023-05-16T10:10:56;23.17;;;9.70;;
6850;SDS011;3464;42.728;23.296;2023-05-16T10:13:25;25.80;;;9.90;;
6850;SDS011;3464;42.728;23.296;2023-05-16T10:15:55;20.83;;;9.80;;
6850;SDS011;3464;42.728;23.296;2023-05-16T10:18:22;24.77;;;9.87;;
6850;SDS011;3464;42.728;23.296;2023-05-16T10:20:48;21.67;;;9.50;;
6850;SDS011;3464;42.728;23.296;2023-05-16T10:23:16;22.63;;;9.80;;
6850;SDS011;3464;42.728;23.296;2023-05-16T10:25:44;26.33;;;8.90;;
6850;SDS011;3464;42.728;23.296;2023-05-16T10:28:11;26.90;;;10.17;;
6850;SDS011;3464;42.728;23.296;2023-05-16T10:30:39;22.93;;;10.00;;
6850;SDS011;3464;42.728;23.296;2023-05-16T10:33:05;19.30;;;7.77;;
6850;SDS011;3464;42.728;23.296;2023-05-16T10:35:34;21.20;;;8.10;;
6850;SDS011;3464;42.728;23.296;2023-05-16T10:38:02;21.00;;;8.40;;
6850;SDS011;3464;42.728;23.296;2023-05-16T10:40:29;21.43;;;8.83;;
6850;SDS011;3464;42.728;23.296;2023-05-16T10:42:56;27.70;;;9.17;;
6850;SDS011;3464;42.728;23.296;2023-05-16T10:45:25;22.40;;;8.70;;
6850;SDS011;3464;42.728;23.296;2023-05-16T10:47:52;24.43;;;9.03;;
6850;SDS011;3464;42.728;23.296;2023-05-16T10:55:42;29.47;;;9.03;;
6850;SDS011;3464;42.728;23.296;2023-05-16T10:58:10;23.87;;;7.93;;
6850;SDS011;3464;42.728;23.296;2023-05-16T11:00:38;23.93;;;8.40;;
6850;SDS011;3464;42.728;23.296;2023-05-16T11:03:05;20.23;;;8.23;;
6850;SDS011;3464;42.728;23.296;2023-05-16T11:05:33;23.90;;;9.20;;
6850;SDS011;3464;42.728;23.296;2023-05-16T11:08:07;18.73;;;8.23;;
6850;SDS011;3464;42.728;23.296;2023-05-16T11:10:34;21.23;;;8.93;;
6850;SDS011;3464;42.728;23.296;2023-05-16T11:13:03;21.83;;;8.30;;
6850;SDS011;3464;42.728;23.296;2023-05-16T11:15:33;20.60;;;8.83;;
6850;SDS011;3464;42.728;23.296;2023-05-16T11:18:06;24.67;;;10.30;;
6850;SDS011;3464;42.728;23.296;2023-05-16T11:23:19;25.80;;;8.70;;
6850;SDS011;3464;42.728;23.296;2023-05-16T11:25:48;18.47;;;8.80;;
6850;SDS011;3464;42.728;23.296;2023-05-16T11:28:14;21.87;;;8.70;;
6850;SDS011;3464;42.728;23.296;2023-05-16T11:30:42;25.30;;;8.57;;
6850;SDS011;3464;42.728;23.296;2023-05-16T11:33:32;19.30;;;8.53;;
6850;SDS011;3464;42.728;23.296;2023-05-16T11:36:00;21.03;;;9.17;;
6850;SDS011;3464;42.728;23.296;2023-05-16T11:38:29;22.40;;;8.73;;
6850;SDS011;3464;42.728;23.296;2023-05-16T11:41:00;20.03;;;8.90;;
6850;SDS011;3464;42.728;23.296;2023-05-16T11:43:28;24.67;;;9.40;;
6850;SDS011;3464;42.728;23.296;2023-05-16T11:45:54;25.43;;;9.40;;
6850;SDS011;3464;42.728;23.296;2023-05-16T11:48:23;26.50;;;9.03;;
6850;SDS011;3464;42.728;23.296;2023-05-16T11:50:50;25.27;;;8.90;;
6850;SDS011;3464;42.728;23.296;2023-05-16T11:53:16;21.57;;;9.30;;
6850;SDS011;3464;42.728;23.296;2023-05-16T11:55:43;21.60;;;9.80;;
6850;SDS011;3464;42.728;23.296;2023-05-16T11:58:10;20.47;;;10.30;;
6850;SDS011;3464;42.728;23.296;2023-05-16T12:00:36;30.17;;;8.77;;
6850;SDS011;3464;42.728;23.296;2023-05-16T12:03:03;26.30;;;9.57;;
6850;SDS011;3464;42.728;23.296;2023-05-16T12:05:29;22.80;;;8.37;;
6850;SDS011;3464;42.728;23.296;2023-05-16T12:07:56;26.47;;;9.47;;
6850;SDS011;3464;42.728;23.296;2023-05-16T12:10:24;25.20;;;8.63;;
6850;SDS011;3464;42.728;23.296;2023-05-16T12:12:51;23.80;;;9.30;;
6850;SDS011;3464;42.728;23.296;2023-05-16T12:15:18;62.57;;;36.67;;
6850;SDS011;3464;42.728;23.296;2023-05-16T12:17:45;18.57;;;7.97;;
6850;SDS011;3464;42.728;23.296;2023-05-16T12:20:12;21.73;;;8.87;;
6850;SDS011;3464;42.728;23.296;2023-05-16T12:22:40;22.00;;;7.97;;
6850;SDS011;3464;42.728;23.296;2023-05-16T12:27:49;28.57;;;8.67;;
6850;SDS011;3464;42.728;23.296;2023-05-16T12:30:17;20.23;;;7.87;;
6850;SDS011;3464;42.728;23.296;2023-05-16T12:32:44;22.50;;;8.40;;
6850;SDS011;3464;42.728;23.296;2023-05-16T12:35:11;20.67;;;7.90;;
6850;SDS011;3464;42.728;23.296;2023-05-16T12:37:38;25.60;;;8.30;;
6850;SDS011;3464;42.728;23.296;2023-05-16T12:40:08;20.00;;;8.67;;
6850;SDS011;3464;42.728;23.296;2023-05-16T12:42:36;19.43;;;7.57;;
6850;SDS011;3464;42.728;23.296;2023-05-16T12:45:03;21.57;;;8.23;;
6850;SDS011;3464;42.728;23.296;2023-05-16T12:47:34;20.17;;;7.83;;
6850;SDS011;3464;42.728;23.296;2023-05-16T12:50:01;24.67;;;8.07;;
6850;SDS011;3464;42.728;23.296;2023-05-16T12:52:28;17.60;;;7.30;;
6850;SDS011;3464;42.728;23.296;2023-05-16T12:54:54;32.03;;;8.60;;
6850;SDS011;3464;42.728;23.296;2023-05-16T12:57:22;20.17;;;8.00;;
6850;SDS011;3464;42.728;23.296;2023-05-16T12:59:50;29.40;;;9.73;;
6850;SDS011;3464;42.728;23.296;2023-05-16T13:02:16;22.83;;;8.90;;
6850;SDS011;3464;42.728;23.296;2023-05-16T13:04:43;23.60;;;9.63;;
6850;SDS011;3464;42.728;23.296;2023-05-16T13:07:12;29.23;;;8.80;;
6850;SDS011;3464;42.728;23.296;2023-05-16T13:09:38;23.37;;;9.00;;
6850;SDS011;3464;42.728;23.296;2023-05-16T13:12:06;27.53;;;9.07;;
6850;SDS011;3464;42.728;23.296;2023-05-16T13:14:33;23.80;;;9.80;;
6850;SDS011;3464;42.728;23.296;2023-05-16T13:16:59;23.23;;;9.40;;
6850;SDS011;3464;42.728;23.296;2023-05-16T13:19:26;31.90;;;9.80;;
6850;SDS011;3464;42.728;23.296;2023-05-16T13:21:53;19.97;;;9.17;;
6850;SDS011;3464;42.728;23.296;2023-05-16T13:24:19;28.57;;;10.83;;
6850;SDS011;3464;42.728;23.296;2023-05-16T13:26:46;20.87;;;8.87;;
6850;SDS011;3464;42.728;23.296;2023-05-16T13:29:12;26.10;;;9.03;;
6850;SDS011;3464;42.728;23.296;2023-05-16T13:31:41;19.90;;;8.77;;
6850;SDS011;3464;42.728;23.296;2023-05-16T13:34:08;23.53;;;9.50;;
6850;SDS011;3464;42.728;23.296;2023-05-16T13:36:34;26.10;;;9.33;;
6850;SDS011;3464;42.728;23.296;2023-05-16T13:39:01;23.93;;;9.70;;
6850;SDS011;3464;42.728;23.296;2023-05-16T13:41:27;27.63;;;9.20;;
6850;SDS011;3464;42.728;23.296;2023-05-16T13:43:54;23.03;;;9.23;;
6850;SDS011;3464;42.728;23.296;2023-05-16T13:46:21;25.30;;;9.53;;
6850;SDS011;3464;42.728;23.296;2023-05-16T13:48:48;20.40;;;8.93;;
6850;SDS011;3464;42.728;23.296;2023-05-16T13:51:15;24.33;;;9.90;;
6850;SDS011;3464;42.728;23.296;2023-05-16T13:53:41;27.47;;;9.90;;
6850;SDS011;3464;42.728;23.296;2023-05-16T13:56:09;24.23;;;9.97;;
6850;SDS011;3464;42.728;23.296;2023-05-16T13:58:35;22.20;;;9.30;;
6850;SDS011;3464;42.728;23.296;2023-05-16T14:01:04;22.60;;;9.93;;
6850;SDS011;3464;42.728;23.296;2023-05-16T14:03:32;29.33;;;9.80;;
6850;SDS011;3464;42.728;23.296;2023-05-16T14:05:59;25.77;;;10.20;;
6850;SDS011;3464;42.728;23.296;2023-05-16T14:08:26;29.60;;;10.53;;
6850;SDS011;3464;42.728;23.296;2023-05-16T14:10:53;25.50;;;10.60;;
6850;SDS011;3464;42.728;23.296;2023-05-16T14:13:21;31.27;;;10.60;;
6850;SDS011;3464;42.728;23.296;2023-05-16T14:15:48;26.43;;;10.97;;
6850;SDS011;3464;42.728;23.296;2023-05-16T14:18:17;28.23;;;11.10;;
6850;SDS011;3464;42.728;23.296;2023-05-16T14:20:44;30.30;;;12.00;;
6850;SDS011;3464;42.728;23.296;2023-05-16T14:23:10;32.07;;;11.57;;
6850;SDS011;3464;42.728;23.296;2023-05-16T14:25:37;33.10;;;12.50;;
6850;SDS011;3464;42.728;23.296;2023-05-16T14:28:03;26.77;;;12.13;;
6850;SDS011;3464;42.728;23.296;2023-05-16T14:30:30;26.60;;;12.63;;
6850;SDS011;3464;42.728;23.296;2023-05-16T14:32:56;32.83;;;13.00;;
6850;SDS011;3464;42.728;23.296;2023-05-16T14:35:26;34.00;;;14.10;;
6850;SDS011;3464;42.728;23.296;2023-05-16T14:37:52;38.90;;;13.80;;
6850;SDS011;3464;42.728;23.296;2023-05-16T14:40:19;24.07;;;12.40;;
6850;SDS011;3464;42.728;23.296;2023-05-16T14:42:46;26.93;;;12.83;;
6850;SDS011;3464;42.728;23.296;2023-05-16T14:45:13;26.20;;;12.07;;
6850;SDS011;3464;42.728;23.296;2023-05-16T14:47:39;28.17;;;13.87;;
6850;SDS011;3464;42.728;23.296;2023-05-16T14:50:07;26.23;;;13.47;;
6850;SDS011;3464;42.728;23.296;2023-05-16T14:52:34;25.67;;;12.77;;
6850;SDS011;3464;42.728;23.296;2023-05-16T14:55:00;27.47;;;13.13;;
6850;SDS011;3464;42.728;23.296;2023-05-16T14:57:27;32.17;;;16.10;;